createdAt,value
2018-08-20T00:00:34.481Z,99.90
2018-08-20T00:03:05.133Z,99.90
2018-08-20T00:05:38.045Z,99.90
2018-08-20T00:08:09.077Z,99.90
2018-08-20T00:10:39.681Z,99.90
2018-08-20T00:13:10.289Z,99.90
2018-08-20T00:15:41.015Z,99.90
2018-08-20T00:18:18.171Z,99.90
2018-08-20T00:20:48.743Z,99.90
2018-08-20T00:23:19.186Z,99.90
2018-08-20T00:25:49.831Z,99.90
2018-08-20T00:28:20.528Z,99.90
2018-08-20T00:30:51.275Z,99.90
2018-08-20T00:33:21.806Z,99.90
2018-08-20T00:35:52.448Z,99.90
2018-08-20T00:38:23.021Z,99.90
2018-08-20T00:40:53.497Z,99.90
2018-08-20T00:43:24.061Z,99.90
2018-08-20T00:45:54.525Z,99.90
2018-08-20T00:48:25.028Z,99.90
2018-08-20T00:50:55.383Z,99.90
2018-08-20T00:53:25.884Z,99.90
2018-08-20T00:55:56.479Z,99.90
2018-08-20T00:58:27.010Z,99.90
2018-08-20T01:00:57.745Z,99.90
2018-08-20T01:03:28.300Z,99.90
2018-08-20T01:05:58.868Z,99.90
2018-08-20T01:08:29.721Z,99.90
2018-08-20T01:11:00.659Z,99.90
2018-08-20T01:13:31.103Z,99.90
2018-08-20T01:16:01.572Z,99.90
2018-08-20T01:18:32.681Z,99.90
2018-08-20T01:21:03.254Z,99.90
2018-08-20T01:23:33.876Z,99.90
2018-08-20T01:26:04.283Z,99.90
2018-08-20T01:28:34.730Z,99.90
2018-08-20T01:31:05.343Z,99.90
2018-08-20T01:33:35.891Z,99.90
2018-08-20T01:36:06.433Z,99.90
2018-08-20T01:38:37.331Z,99.90
2018-08-20T01:41:07.663Z,99.90
2018-08-20T01:43:38.096Z,99.90
2018-08-20T01:46:09.135Z,99.90
2018-08-20T01:48:40.432Z,99.90
2018-08-20T01:51:11.139Z,99.90
2018-08-20T01:53:41.588Z,99.90
2018-08-20T01:56:12.110Z,99.90
2018-08-20T01:58:42.601Z,99.90
2018-08-20T02:01:13.193Z,99.90
2018-08-20T02:03:43.714Z,99.90
2018-08-20T02:06:14.293Z,99.90
2018-08-20T02:08:44.903Z,99.90
2018-08-20T02:11:15.495Z,99.90
2018-08-20T02:13:46.130Z,99.90
2018-08-20T02:16:16.540Z,99.90
2018-08-20T02:18:47.007Z,99.90
2018-08-20T02:21:17.451Z,99.90
2018-08-20T02:23:48.038Z,99.90
2018-08-20T02:26:18.578Z,99.90
2018-08-20T02:28:48.973Z,99.90
2018-08-20T02:31:19.499Z,99.90
2018-08-20T02:33:50.052Z,99.90
2018-08-20T02:36:20.527Z,99.90
2018-08-20T02:38:50.955Z,99.90
2018-08-20T02:41:21.733Z,99.90
2018-08-20T02:43:52.066Z,99.90
2018-08-20T02:46:39.002Z,99.90
2018-08-20T02:49:09.376Z,99.90
2018-08-20T02:51:40.311Z,99.90
2018-08-20T02:54:11.737Z,99.90
2018-08-20T02:56:42.999Z,99.90
2018-08-20T02:59:14.505Z,99.90
2018-08-20T03:01:45.297Z,99.90
2018-08-20T03:04:15.946Z,99.90
2018-08-20T03:06:46.421Z,99.90
2018-08-20T03:09:17.414Z,99.90
2018-08-20T03:11:47.747Z,99.90
2018-08-20T03:14:18.182Z,99.90
2018-08-20T03:16:48.750Z,99.90
2018-08-20T03:19:19.275Z,99.90
2018-08-20T03:21:49.729Z,99.90
2018-08-20T03:24:20.083Z,99.90
2018-08-20T03:26:50.609Z,99.90
2018-08-20T03:29:21.097Z,99.90
2018-08-20T03:31:51.618Z,99.90
2018-08-20T03:34:22.140Z,99.90
2018-08-20T03:36:52.676Z,99.90
2018-08-20T03:39:23.272Z,99.90
2018-08-20T03:41:53.733Z,99.90
2018-08-20T03:44:24.348Z,99.90
2018-08-20T03:46:54.840Z,99.90
2018-08-20T03:49:25.295Z,99.90
2018-08-20T03:51:55.802Z,99.90
2018-08-20T03:54:26.535Z,99.90
2018-08-20T03:56:56.928Z,99.90
2018-08-20T03:59:37.587Z,99.90
2018-08-20T04:02:09.026Z,99.90
2018-08-20T04:04:39.535Z,99.90
2018-08-20T04:07:10.008Z,99.90
2018-08-20T04:09:40.495Z,99.90
2018-08-20T04:12:10.933Z,99.90
2018-08-20T04:14:41.466Z,99.90
2018-08-20T04:17:11.997Z,99.90
2018-08-20T04:19:42.881Z,99.90
2018-08-20T04:22:14.475Z,99.90
2018-08-20T04:24:45.908Z,99.90
2018-08-20T04:27:16.900Z,99.90
2018-08-20T04:29:47.609Z,99.90
2018-08-20T04:32:18.260Z,99.90
2018-08-20T04:34:48.652Z,99.90
2018-08-20T04:37:20.036Z,99.90
2018-08-20T04:39:50.868Z,99.90
2018-08-20T04:42:21.419Z,99.90
2018-08-20T04:44:52.453Z,99.90
2018-08-20T04:47:23.168Z,99.90
2018-08-20T04:49:54.206Z,99.90
2018-08-20T04:52:24.727Z,99.90
2018-08-20T04:54:55.651Z,99.90
2018-08-20T04:57:26.384Z,99.90
2018-08-20T04:59:57.342Z,99.90
2018-08-20T05:02:28.536Z,99.90
2018-08-20T05:04:59.394Z,99.90
2018-08-20T05:07:30.072Z,99.90
2018-08-20T05:10:01.132Z,99.90
2018-08-20T05:12:31.902Z,99.90
2018-08-20T05:15:02.458Z,99.90
2018-08-20T05:17:33.334Z,99.90
2018-08-20T05:20:04.122Z,99.90
2018-08-20T05:22:35.418Z,99.90
2018-08-20T05:25:06.630Z,99.90
2018-08-20T05:27:37.235Z,99.90
2018-08-20T05:30:10.097Z,99.90
2018-08-20T05:32:40.847Z,99.90
2018-08-20T05:35:11.563Z,99.90
2018-08-20T05:37:42.133Z,99.90
2018-08-20T05:40:12.981Z,99.90
2018-08-20T05:42:43.646Z,99.90
2018-08-20T05:45:16.687Z,99.90
2018-08-20T05:47:49.202Z,99.90
2018-08-20T05:50:22.169Z,99.90
2018-08-20T05:52:52.829Z,99.90
2018-08-20T05:55:24.628Z,99.90
2018-08-20T05:57:55.632Z,99.90
2018-08-20T06:00:26.492Z,99.90
2018-08-20T06:02:58.995Z,99.90
2018-08-20T06:05:30.568Z,99.90
2018-08-20T06:08:02.132Z,99.90
2018-08-20T06:10:32.761Z,99.90
2018-08-20T06:13:04.333Z,99.90
2018-08-20T06:15:35.556Z,99.90
2018-08-20T06:18:07.025Z,99.90
2018-08-20T06:20:39.108Z,99.90
2018-08-20T06:23:11.165Z,99.90
2018-08-20T06:25:42.154Z,99.90
2018-08-20T06:28:12.982Z,99.90
2018-08-20T06:30:45.067Z,99.90
2018-08-20T06:33:16.906Z,99.90
2018-08-20T06:35:48.137Z,99.90
2018-08-20T06:38:21.854Z,99.90
2018-08-20T06:40:52.694Z,99.90
2018-08-20T06:43:25.294Z,99.90
2018-08-20T06:45:57.621Z,99.90
2018-08-20T06:48:29.035Z,99.90
2018-08-20T06:51:00.643Z,99.90
2018-08-20T06:53:37.666Z,99.90
2018-08-20T06:56:10.027Z,99.90
2018-08-20T06:58:42.978Z,99.90
2018-08-20T07:01:14.681Z,99.90
2018-08-20T07:03:49.298Z,99.90
2018-08-20T07:06:23.910Z,99.90
2018-08-20T07:08:59.513Z,99.90
2018-08-20T07:11:37.809Z,99.90
2018-08-20T07:14:09.241Z,99.90
2018-08-20T07:16:41.120Z,99.90
2018-08-20T07:19:12.035Z,99.90
2018-08-20T07:21:42.876Z,99.90
2018-08-20T07:24:14.265Z,99.90
2018-08-20T07:26:45.535Z,99.90
2018-08-20T07:29:27.552Z,99.90
2018-08-20T07:32:00.187Z,99.90
2018-08-20T07:34:31.525Z,99.90
2018-08-20T07:37:10.423Z,99.90
2018-08-20T07:39:51.221Z,99.90
2018-08-20T07:42:23.308Z,99.90
2018-08-20T07:44:56.367Z,99.90
2018-08-20T07:47:29.006Z,99.90
2018-08-20T07:50:00.783Z,99.90
2018-08-20T07:52:31.975Z,99.90
2018-08-20T07:55:02.705Z,99.90
2018-08-20T07:57:33.617Z,99.90
2018-08-20T08:00:04.498Z,99.90
2018-08-20T08:02:35.550Z,99.90
2018-08-20T08:05:11.399Z,99.90
2018-08-20T08:07:43.602Z,99.90
2018-08-20T08:10:17.030Z,99.90
2018-08-20T08:12:50.272Z,99.90
2018-08-20T08:15:28.429Z,99.90
2018-08-20T08:17:59.811Z,99.90
2018-08-20T08:20:33.853Z,99.90
2018-08-20T08:23:05.957Z,99.90
2018-08-20T08:25:39.233Z,99.90
2018-08-20T08:28:10.278Z,99.90
2018-08-20T08:30:55.115Z,99.90
2018-08-20T08:33:26.938Z,99.90
2018-08-20T08:35:57.958Z,99.90
2018-08-20T08:38:31.120Z,99.90
2018-08-20T08:41:05.210Z,99.90
2018-08-20T08:43:37.204Z,99.90
2018-08-20T08:46:08.088Z,99.90
2018-08-20T08:48:40.475Z,99.20
2018-08-20T08:51:11.296Z,98.80
2018-08-20T08:53:41.995Z,97.70
2018-08-20T08:56:12.645Z,97.60
2018-08-20T08:58:43.266Z,96.50
2018-08-20T09:01:14.116Z,95.40
2018-08-20T09:03:44.758Z,94.90
2018-08-20T09:06:15.285Z,96.10
2018-08-20T09:08:45.859Z,96.10
2018-08-20T09:11:16.426Z,95.10
2018-08-20T09:13:47.103Z,93.80
2018-08-20T09:16:18.369Z,93.30
2018-08-20T09:18:49.067Z,93.10
2018-08-20T09:21:19.579Z,93.10
2018-08-20T09:23:50.418Z,91.50
2018-08-20T09:26:21.205Z,91.80
2018-08-20T09:28:51.728Z,90.90
2018-08-20T09:31:22.454Z,89.80
2018-08-20T09:33:53.038Z,88.90
2018-08-20T09:36:24.127Z,88.40
2018-08-20T09:38:54.865Z,86.00
2018-08-20T09:41:26.540Z,87.00
2018-08-20T09:43:57.235Z,86.90
2018-08-20T09:46:28.379Z,84.30
2018-08-20T09:48:59.178Z,84.70
2018-08-20T09:51:29.831Z,80.80
2018-08-20T09:54:00.393Z,82.00
2018-08-20T09:56:31.982Z,80.70
2018-08-20T09:59:03.293Z,79.50
2018-08-20T10:01:34.563Z,79.60
2018-08-20T10:04:05.187Z,81.20
2018-08-20T10:06:35.780Z,80.00
2018-08-20T10:09:07.658Z,79.50
2018-08-20T10:11:39.040Z,79.70
2018-08-20T10:14:09.649Z,76.50
2018-08-20T10:16:40.257Z,74.60
2018-08-20T10:19:10.743Z,73.80
2018-08-20T10:21:41.365Z,68.30
2018-08-20T10:24:11.820Z,69.60
2018-08-20T10:26:42.327Z,66.90
2018-08-20T10:29:12.940Z,67.10
2018-08-20T10:31:43.776Z,67.30
2018-08-20T10:34:14.417Z,67.50
2018-08-20T10:36:44.994Z,67.50
2018-08-20T10:39:15.633Z,68.30
2018-08-20T10:41:46.304Z,69.20
2018-08-20T10:44:16.916Z,69.20
2018-08-20T10:46:48.131Z,69.70
2018-08-20T10:49:20.623Z,69.80
2018-08-20T10:51:51.382Z,69.70
2018-08-20T10:54:22.742Z,70.30
2018-08-20T10:56:54.179Z,68.90
2018-08-20T10:59:24.972Z,69.00
2018-08-20T11:01:56.039Z,69.00
2018-08-20T11:04:27.341Z,70.50
2018-08-20T11:06:58.632Z,72.10
2018-08-20T11:09:29.825Z,71.90
2018-08-20T11:12:01.056Z,68.60
2018-08-20T11:14:32.816Z,65.90
2018-08-20T11:17:03.828Z,67.80
2018-08-20T11:19:34.518Z,66.50
2018-08-20T11:22:05.571Z,68.80
2018-08-20T11:24:36.402Z,67.10
2018-08-20T11:27:07.270Z,66.10
2018-08-20T11:29:38.274Z,66.00
2018-08-20T11:32:09.161Z,64.90
2018-08-20T11:34:40.565Z,64.10
2018-08-20T11:37:11.333Z,61.90
2018-08-20T11:39:42.471Z,61.10
2018-08-20T11:42:13.918Z,66.70
2018-08-20T11:44:44.559Z,63.30
2018-08-20T11:47:15.121Z,63.90
2018-08-20T11:49:45.930Z,62.90
2018-08-20T11:52:16.945Z,62.50
2018-08-20T11:54:48.993Z,59.90
2018-08-20T11:57:19.946Z,61.20
2018-08-20T11:59:50.591Z,60.30
2018-08-20T12:02:23.281Z,57.20
2018-08-20T12:04:54.093Z,55.70
2018-08-20T12:07:25.316Z,55.00
2018-08-20T12:09:56.051Z,55.30
2018-08-20T12:12:26.786Z,54.50
2018-08-20T12:14:57.741Z,54.60
2018-08-20T12:17:29.399Z,54.50
2018-08-20T12:20:01.490Z,54.10
2018-08-20T12:22:34.099Z,53.90
2018-08-20T12:25:05.968Z,53.30
2018-08-20T12:27:36.793Z,53.10
2018-08-20T12:30:09.546Z,53.60
2018-08-20T12:32:40.562Z,54.80
2018-08-20T12:35:11.949Z,53.90
2018-08-20T12:37:42.710Z,53.10
2018-08-20T12:40:13.612Z,51.60
2018-08-20T12:42:44.342Z,51.90
2018-08-20T12:45:14.101Z,56.50
2018-08-20T12:47:44.757Z,58.80
2018-08-20T12:50:15.426Z,60.60
2018-08-20T12:52:46.148Z,63.30
2018-08-20T12:55:16.855Z,66.10
2018-08-20T12:57:47.528Z,68.70
2018-08-20T13:00:17.996Z,70.20
2018-08-20T13:02:48.635Z,70.10
2018-08-20T13:05:19.190Z,68.50
2018-08-20T13:07:49.782Z,70.00
2018-08-20T13:10:20.506Z,71.00
2018-08-20T13:12:51.093Z,72.50
2018-08-20T13:15:21.944Z,75.30
2018-08-20T13:17:52.672Z,74.60
2018-08-20T13:20:23.433Z,77.70
2018-08-20T13:22:54.534Z,79.40
2018-08-20T13:25:25.392Z,76.80
2018-08-20T13:27:56.178Z,80.40
2018-08-20T13:30:27.242Z,89.80
2018-08-20T13:32:57.924Z,93.20
2018-08-20T13:35:28.505Z,94.10
2018-08-20T13:37:59.320Z,96.30
2018-08-20T13:40:30.071Z,99.90
2018-08-20T13:43:01.413Z,99.90
2018-08-20T13:45:33.128Z,99.90
2018-08-20T13:48:03.948Z,99.90
2018-08-20T13:50:34.521Z,99.90
2018-08-20T13:53:05.309Z,99.90
2018-08-20T13:55:35.848Z,99.90
2018-08-20T13:58:06.760Z,99.90
2018-08-20T14:00:38.460Z,99.90
2018-08-20T14:03:09.110Z,99.90
2018-08-20T14:05:39.736Z,99.90
2018-08-20T14:08:10.727Z,99.90
2018-08-20T14:10:41.359Z,99.90
2018-08-20T14:13:11.867Z,99.90
2018-08-20T14:15:42.665Z,99.90
2018-08-20T14:18:13.476Z,99.90
2018-08-20T14:20:59.971Z,99.90
2018-08-20T14:23:30.939Z,99.90
2018-08-20T14:26:02.082Z,99.90
2018-08-20T14:28:33.101Z,99.90
2018-08-20T14:31:04.611Z,99.90
2018-08-20T14:33:35.328Z,99.90
2018-08-20T14:36:06.181Z,99.90
2018-08-20T14:38:36.960Z,99.90
2018-08-20T14:41:07.692Z,99.90
2018-08-20T14:43:39.278Z,99.90
2018-08-20T14:46:14.971Z,99.90
2018-08-20T14:48:45.985Z,99.90
2018-08-20T14:51:16.989Z,99.90
2018-08-20T14:53:47.822Z,99.90
2018-08-20T14:56:18.910Z,99.90
2018-08-20T14:58:50.077Z,99.90
2018-08-20T15:01:20.940Z,99.90
2018-08-20T15:03:52.290Z,99.90
2018-08-20T15:06:23.369Z,99.90
2018-08-20T15:08:55.131Z,99.90
2018-08-20T15:11:26.626Z,99.90
2018-08-20T15:13:57.275Z,99.90
2018-08-20T15:16:29.247Z,99.90
2018-08-20T15:19:00.129Z,99.90
2018-08-20T15:21:30.665Z,99.90
2018-08-20T15:24:01.390Z,98.50
2018-08-20T15:26:32.320Z,97.20
2018-08-20T15:29:03.112Z,97.10
2018-08-20T15:31:34.436Z,97.30
2018-08-20T15:34:05.177Z,98.60
2018-08-20T15:36:36.982Z,99.60
2018-08-20T15:39:09.325Z,99.90
2018-08-20T15:41:40.113Z,99.90
2018-08-20T15:44:11.379Z,99.90
2018-08-20T15:46:42.085Z,99.90
2018-08-20T15:49:12.877Z,99.20
2018-08-20T15:51:43.500Z,97.30
2018-08-20T15:54:14.246Z,97.80
2018-08-20T15:56:45.007Z,97.90
2018-08-20T15:59:15.571Z,97.50
2018-08-20T16:01:46.393Z,98.40
2018-08-20T16:04:16.975Z,98.60
2018-08-20T16:06:47.783Z,99.30
2018-08-20T16:09:19.124Z,99.50
2018-08-20T16:11:50.776Z,99.90
2018-08-20T16:14:21.428Z,99.00
2018-08-20T16:16:52.409Z,99.80
2018-08-20T16:19:24.276Z,99.90
2018-08-20T16:21:55.495Z,99.60
2018-08-20T16:24:26.785Z,99.90
2018-08-20T16:26:57.633Z,99.90
2018-08-20T16:29:28.631Z,99.90
2018-08-20T16:32:00.021Z,99.90
2018-08-20T16:34:30.791Z,99.90
2018-08-20T16:37:01.485Z,99.90
2018-08-20T16:39:32.431Z,99.90
2018-08-20T16:42:03.266Z,99.90
2018-08-20T16:44:34.396Z,99.90
2018-08-20T16:47:05.296Z,99.90
2018-08-20T16:49:36.216Z,99.90
2018-08-20T16:52:08.186Z,99.90
2018-08-20T16:54:40.215Z,99.90
2018-08-20T16:57:12.539Z,99.90
2018-08-20T16:59:44.750Z,99.90
2018-08-20T17:02:20.507Z,99.90
2018-08-20T17:04:51.228Z,99.90
2018-08-20T17:07:22.863Z,99.90
2018-08-20T17:09:53.584Z,99.90
2018-08-20T17:12:24.436Z,99.90
2018-08-20T17:14:55.316Z,99.90
2018-08-20T17:17:26.173Z,99.90
2018-08-20T17:19:57.796Z,99.90
2018-08-20T17:22:28.762Z,99.90
2018-08-20T17:24:59.594Z,99.90
2018-08-20T17:27:31.499Z,99.90
2018-08-20T17:30:02.438Z,99.90
2018-08-20T17:32:33.750Z,99.90
2018-08-20T17:35:04.915Z,99.90
2018-08-20T17:37:35.650Z,99.90
2018-08-20T17:40:10.360Z,99.90
2018-08-20T17:42:41.569Z,99.90
2018-08-20T17:45:12.808Z,99.90
2018-08-20T17:47:44.415Z,99.90
2018-08-20T17:50:32.971Z,99.90
2018-08-20T17:53:03.951Z,99.90
2018-08-20T17:55:35.617Z,99.90
2018-08-20T17:58:06.757Z,99.90
2018-08-20T18:00:44.077Z,99.90
2018-08-20T18:03:26.727Z,99.90
2018-08-20T18:06:01.090Z,99.90
2018-08-20T18:08:33.497Z,99.90
2018-08-20T18:11:05.805Z,99.90
2018-08-20T18:13:49.100Z,99.90
2018-08-20T18:16:22.808Z,99.90
2018-08-20T18:18:54.990Z,99.90
2018-08-20T18:21:29.662Z,99.90
2018-08-20T18:24:01.700Z,99.90
2018-08-20T18:26:37.416Z,99.90
2018-08-20T18:29:11.303Z,99.90
2018-08-20T18:31:43.355Z,99.90
2018-08-20T18:34:15.195Z,99.90
2018-08-20T18:36:47.486Z,99.90
2018-08-20T18:39:19.550Z,99.90
2018-08-20T18:42:05.349Z,99.90
2018-08-20T18:44:38.274Z,99.90
2018-08-20T18:47:13.304Z,99.90
2018-08-20T18:49:52.839Z,99.90
2018-08-20T18:52:26.106Z,99.90
2018-08-20T18:55:00.197Z,99.90
2018-08-20T18:57:37.590Z,99.90
2018-08-20T19:00:16.969Z,99.90
2018-08-20T19:02:57.958Z,99.90
2018-08-20T19:05:31.007Z,99.90
2018-08-20T19:08:04.694Z,99.90
2018-08-20T19:10:36.998Z,99.90
2018-08-20T19:13:11.662Z,99.90
2018-08-20T19:15:46.954Z,99.90
2018-08-20T19:18:39.663Z,99.90
2018-08-20T19:21:17.040Z,99.90
2018-08-20T19:23:49.015Z,99.90
2018-08-20T19:26:21.432Z,99.90
2018-08-20T19:28:53.980Z,99.90
2018-08-20T19:31:26.365Z,99.90
2018-08-20T19:33:58.568Z,99.90
2018-08-20T19:36:31.467Z,99.90
2018-08-20T19:39:04.003Z,99.90
2018-08-20T19:41:37.049Z,99.90
2018-08-20T19:44:12.645Z,99.90
2018-08-20T19:46:44.966Z,99.90
2018-08-20T19:49:17.567Z,99.90
2018-08-20T19:51:49.418Z,99.90
2018-08-20T19:54:21.838Z,99.90
2018-08-20T19:56:55.086Z,99.90
2018-08-20T19:59:31.912Z,99.90
2018-08-20T20:02:09.693Z,99.90
2018-08-20T20:04:43.088Z,99.90
2018-08-20T20:07:14.983Z,99.90
2018-08-20T20:09:47.807Z,99.90
2018-08-20T20:12:19.997Z,99.90
2018-08-20T20:14:52.001Z,99.90
2018-08-20T20:17:24.803Z,99.90
2018-08-20T20:19:58.045Z,99.90
2018-08-20T20:22:30.162Z,99.90
2018-08-20T20:25:03.032Z,99.90
2018-08-20T20:27:35.661Z,99.90
2018-08-20T20:30:08.536Z,99.90
2018-08-20T20:32:41.083Z,99.90
2018-08-20T20:35:13.529Z,99.90
2018-08-20T20:37:45.454Z,99.90
2018-08-20T20:40:17.580Z,99.90
2018-08-20T20:42:49.257Z,99.90
2018-08-20T20:45:21.733Z,99.90
2018-08-20T20:47:53.462Z,99.90
2018-08-20T20:50:25.881Z,99.90
2018-08-20T20:52:58.833Z,99.90
2018-08-20T20:55:31.558Z,99.90
2018-08-20T20:58:03.142Z,99.90
2018-08-20T21:00:37.008Z,99.90
2018-08-20T21:03:11.740Z,99.90
2018-08-20T21:05:44.509Z,99.90
2018-08-20T21:08:15.500Z,99.90
2018-08-20T21:10:51.050Z,99.90
2018-08-20T21:13:22.315Z,99.90
2018-08-20T21:15:58.307Z,99.90
2018-08-20T21:18:29.206Z,99.90
2018-08-20T21:21:01.166Z,99.90
2018-08-20T21:23:32.661Z,99.90
2018-08-20T21:26:05.060Z,99.90
2018-08-20T21:28:44.348Z,99.90
2018-08-20T21:31:17.612Z,99.90
2018-08-20T21:33:50.336Z,99.90
2018-08-20T21:36:21.894Z,99.90
2018-08-20T21:38:52.889Z,99.90
2018-08-20T21:41:28.832Z,99.90
2018-08-20T21:43:59.583Z,99.90
2018-08-20T21:46:30.289Z,99.90
2018-08-20T21:49:01.217Z,99.90
2018-08-20T21:51:38.202Z,99.90
2018-08-20T21:54:09.029Z,99.90
2018-08-20T21:56:54.198Z,99.90
2018-08-20T21:59:25.219Z,99.90
2018-08-20T22:01:57.313Z,99.90
2018-08-20T22:04:28.120Z,99.90
2018-08-20T22:07:00.086Z,99.90
2018-08-20T22:09:30.954Z,99.90
2018-08-20T22:12:01.588Z,99.90
2018-08-20T22:14:32.407Z,99.90
2018-08-20T22:17:03.228Z,99.90
2018-08-20T22:19:33.919Z,99.90
2018-08-20T22:22:04.704Z,99.90
2018-08-20T22:24:35.548Z,99.90
2018-08-20T22:27:06.934Z,99.90
2018-08-20T22:29:42.521Z,99.90
2018-08-20T22:32:13.374Z,99.90
2018-08-20T22:34:43.985Z,99.90
2018-08-20T22:37:16.221Z,99.90
2018-08-20T22:39:54.669Z,99.90
2018-08-20T22:42:43.411Z,99.90
2018-08-20T22:45:16.203Z,99.90
2018-08-20T22:47:47.779Z,99.90
2018-08-20T22:50:18.572Z,99.90
2018-08-20T22:52:51.323Z,99.90
2018-08-20T22:55:23.320Z,99.90
2018-08-20T22:58:12.274Z,99.90
2018-08-20T23:00:43.276Z,99.90
2018-08-20T23:03:13.809Z,99.90
2018-08-20T23:05:44.473Z,99.90
2018-08-20T23:08:19.446Z,99.90
2018-08-20T23:10:50.172Z,99.90
2018-08-20T23:13:22.302Z,99.90
2018-08-20T23:15:53.162Z,99.90
2018-08-20T23:18:23.819Z,99.90
2018-08-20T23:20:54.430Z,99.90
2018-08-20T23:23:29.814Z,99.90
2018-08-20T23:26:07.165Z,99.90
2018-08-20T23:28:40.549Z,99.90
2018-08-20T23:31:11.519Z,99.90
2018-08-20T23:33:42.278Z,99.90
2018-08-20T23:36:12.934Z,99.90
2018-08-20T23:38:43.618Z,99.90
2018-08-20T23:41:14.414Z,99.90
2018-08-20T23:43:50.098Z,99.90
2018-08-20T23:46:40.080Z,99.90
2018-08-20T23:49:10.818Z,99.90
2018-08-20T23:51:41.452Z,99.90
2018-08-20T23:54:13.668Z,99.90
2018-08-20T23:56:44.540Z,99.90
2018-08-20T23:59:15.411Z,99.90
